createdAt,value
2017-12-05T00:00:25.330Z,0.00
2017-12-05T00:01:25.318Z,0.00
2017-12-05T00:02:25.280Z,0.00
2017-12-05T00:03:25.254Z,0.00
2017-12-05T00:04:25.220Z,0.00
2017-12-05T00:05:25.197Z,0.00
2017-12-05T00:06:25.167Z,0.00
2017-12-05T00:07:25.150Z,0.00
2017-12-05T00:08:25.113Z,0.00
2017-12-05T00:09:25.072Z,0.00
2017-12-05T00:10:25.048Z,0.00
2017-12-05T00:11:25.017Z,0.00
2017-12-05T00:12:24.984Z,0.00
2017-12-05T00:13:24.962Z,0.00
2017-12-05T00:14:24.934Z,0.00
2017-12-05T00:15:24.910Z,0.00
2017-12-05T00:16:24.880Z,0.00
2017-12-05T00:17:24.850Z,0.00
2017-12-05T00:18:24.823Z,0.00
2017-12-05T00:19:24.788Z,0.00
2017-12-05T00:20:24.767Z,0.00
2017-12-05T00:21:24.737Z,0.00
2017-12-05T00:22:24.701Z,0.00
2017-12-05T00:23:24.686Z,0.00
2017-12-05T00:24:24.651Z,0.00
2017-12-05T00:25:24.621Z,0.00
2017-12-05T00:26:24.592Z,0.00
2017-12-05T00:27:24.555Z,0.00
2017-12-05T00:28:24.537Z,0.00
2017-12-05T00:29:24.509Z,0.00
2017-12-05T00:30:24.478Z,0.00
2017-12-05T00:31:24.447Z,0.00
2017-12-05T00:32:24.722Z,0.00
2017-12-05T00:33:24.393Z,0.00
2017-12-05T00:34:24.371Z,0.00
2017-12-05T00:35:24.328Z,0.00
2017-12-05T00:36:24.309Z,0.00
2017-12-05T00:37:24.273Z,0.00
2017-12-05T00:38:24.487Z,0.00
2017-12-05T00:39:24.218Z,0.00
2017-12-05T00:40:24.198Z,0.00
2017-12-05T00:41:24.151Z,0.00
2017-12-05T00:42:24.132Z,0.00
2017-12-05T00:43:24.100Z,0.00
2017-12-05T00:44:24.087Z,0.00
2017-12-05T00:45:24.049Z,0.00
2017-12-05T00:46:24.027Z,0.00
2017-12-05T00:47:23.982Z,0.00
2017-12-05T00:48:23.958Z,0.00
2017-12-05T00:49:23.930Z,0.00
2017-12-05T00:50:23.905Z,0.00
2017-12-05T00:51:23.875Z,0.00
2017-12-05T00:52:23.841Z,0.00
2017-12-05T00:53:23.808Z,0.00
2017-12-05T00:54:23.789Z,0.00
2017-12-05T00:55:23.762Z,0.00
2017-12-05T00:56:24.089Z,0.00
2017-12-05T00:57:23.694Z,0.00
2017-12-05T00:58:23.666Z,0.00
2017-12-05T00:59:23.647Z,0.00
2017-12-05T01:00:23.609Z,0.00
2017-12-05T01:01:23.587Z,0.00
2017-12-05T01:02:23.557Z,0.00
2017-12-05T01:03:23.544Z,0.00
2017-12-05T01:04:23.504Z,0.00
2017-12-05T01:05:23.481Z,0.00
2017-12-05T01:06:23.450Z,0.00
2017-12-05T01:07:23.421Z,0.00
2017-12-05T01:08:23.634Z,0.00
2017-12-05T01:09:23.363Z,0.00
2017-12-05T01:10:23.344Z,0.00
2017-12-05T01:11:23.303Z,0.00
2017-12-05T01:12:23.274Z,0.00
2017-12-05T01:13:23.506Z,0.00
2017-12-05T01:14:23.214Z,0.00
2017-12-05T01:15:23.187Z,0.00
2017-12-05T01:16:23.160Z,0.00
2017-12-05T01:17:23.125Z,0.00
2017-12-05T01:18:23.097Z,0.00
2017-12-05T01:19:23.073Z,0.00
2017-12-05T01:20:23.053Z,0.00
2017-12-05T01:21:23.018Z,0.00
2017-12-05T01:22:22.986Z,0.00
2017-12-05T01:23:22.966Z,0.00
2017-12-05T01:24:22.941Z,0.00
2017-12-05T01:25:22.903Z,0.00
2017-12-05T01:26:22.881Z,0.00
2017-12-05T01:27:22.841Z,0.00
2017-12-05T01:28:22.821Z,0.00
2017-12-05T01:29:22.800Z,0.00
2017-12-05T01:30:22.767Z,0.00
2017-12-05T01:31:22.739Z,0.00
2017-12-05T01:32:22.701Z,0.00
2017-12-05T01:33:22.670Z,0.00
2017-12-05T01:34:22.650Z,0.00
2017-12-05T01:35:22.624Z,0.00
2017-12-05T01:36:22.592Z,0.00
2017-12-05T01:37:22.864Z,0.00
2017-12-05T01:38:22.541Z,0.00
2017-12-05T01:39:22.501Z,0.00
2017-12-05T01:40:22.477Z,0.00
2017-12-05T01:41:22.448Z,0.00
2017-12-05T01:42:22.425Z,0.00
2017-12-05T01:43:22.386Z,0.00
2017-12-05T01:44:22.359Z,0.00
2017-12-05T01:45:22.334Z,0.00
2017-12-05T01:46:22.304Z,0.00
2017-12-05T01:47:22.277Z,0.00
2017-12-05T01:48:22.261Z,0.00
2017-12-05T01:49:22.476Z,0.00
2017-12-05T01:50:22.196Z,0.00
2017-12-05T01:51:22.163Z,0.00
2017-12-05T01:52:22.142Z,0.00
2017-12-05T01:53:22.109Z,0.00
2017-12-05T01:54:22.073Z,0.00
2017-12-05T01:55:22.295Z,0.00
2017-12-05T01:56:22.024Z,0.00
2017-12-05T01:57:22.008Z,0.00
2017-12-05T01:58:21.971Z,0.00
2017-12-05T01:59:21.933Z,0.00
2017-12-05T02:00:21.909Z,0.00
2017-12-05T02:01:21.888Z,0.00
2017-12-05T02:02:21.936Z,0.00
2017-12-05T02:03:21.831Z,0.00
2017-12-05T02:04:21.800Z,0.00
2017-12-05T02:05:21.774Z,0.00
2017-12-05T02:06:21.739Z,0.00
2017-12-05T02:07:21.714Z,0.00
2017-12-05T02:08:21.685Z,0.00
2017-12-05T02:09:21.657Z,0.00
2017-12-05T02:10:21.626Z,0.00
2017-12-05T02:11:21.595Z,0.00
2017-12-05T02:12:21.568Z,0.00
2017-12-05T02:13:21.545Z,0.00
2017-12-05T02:14:21.511Z,0.00
2017-12-05T02:15:21.482Z,0.00
2017-12-05T02:16:21.449Z,0.00
2017-12-05T02:17:21.429Z,0.00
2017-12-05T02:18:21.400Z,0.00
2017-12-05T02:19:21.626Z,0.00
2017-12-05T02:20:21.348Z,0.00
2017-12-05T02:21:21.308Z,0.00
2017-12-05T02:22:21.288Z,0.00
2017-12-05T02:23:21.264Z,0.00
2017-12-05T02:24:21.295Z,0.00
2017-12-05T02:25:21.504Z,0.00
2017-12-05T02:26:21.168Z,0.00
2017-12-05T02:27:21.146Z,0.00
2017-12-05T02:28:21.129Z,0.00
2017-12-05T02:29:21.093Z,0.00
2017-12-05T02:30:21.070Z,0.00
2017-12-05T02:31:21.046Z,0.00
2017-12-05T02:32:21.001Z,0.00
2017-12-05T02:33:20.976Z,0.00
2017-12-05T02:34:20.949Z,0.00
2017-12-05T02:35:20.931Z,0.00
2017-12-05T02:36:20.895Z,0.00
2017-12-05T02:37:20.858Z,0.00
2017-12-05T02:38:20.837Z,0.00
2017-12-05T02:39:20.805Z,0.00
2017-12-05T02:40:20.777Z,0.00
2017-12-05T02:41:20.753Z,0.00
2017-12-05T02:42:20.716Z,0.00
2017-12-05T02:43:20.695Z,0.00
2017-12-05T02:44:20.665Z,0.00
2017-12-05T02:45:20.640Z,0.00
2017-12-05T02:46:20.604Z,0.00
2017-12-05T02:47:20.582Z,0.00
2017-12-05T02:48:20.556Z,0.00
2017-12-05T02:49:20.775Z,0.00
2017-12-05T02:50:20.501Z,0.00
2017-12-05T02:51:20.473Z,0.00
2017-12-05T02:52:20.442Z,0.00
2017-12-05T02:53:20.404Z,0.00
2017-12-05T02:54:20.378Z,0.00
2017-12-05T02:55:20.615Z,0.00
2017-12-05T02:56:20.332Z,0.00
2017-12-05T02:57:20.290Z,0.00
2017-12-05T02:58:20.263Z,0.00
2017-12-05T02:59:20.236Z,0.00
2017-12-05T03:00:20.210Z,0.00
2017-12-05T03:01:20.185Z,0.00
2017-12-05T03:02:20.159Z,0.00
2017-12-05T03:03:20.121Z,0.00
2017-12-05T03:04:20.091Z,0.00
2017-12-05T03:05:20.073Z,0.00
2017-12-05T03:06:20.046Z,0.00
2017-12-05T03:07:20.025Z,0.00
2017-12-05T03:08:19.994Z,0.00
2017-12-05T03:09:19.950Z,0.00
2017-12-05T03:10:19.937Z,0.00
2017-12-05T03:11:19.894Z,0.00
2017-12-05T03:12:19.873Z,0.00
2017-12-05T03:13:19.843Z,0.00
2017-12-05T03:14:19.812Z,0.00
2017-12-05T03:15:19.790Z,0.00
2017-12-05T03:16:19.758Z,0.00
2017-12-05T03:17:19.730Z,0.00
2017-12-05T03:18:19.707Z,0.00
2017-12-05T03:19:20.028Z,0.00
2017-12-05T03:20:19.645Z,0.00
2017-12-05T03:21:19.662Z,0.00
2017-12-05T03:22:19.591Z,0.00
2017-12-05T03:23:19.563Z,0.00
2017-12-05T03:24:19.532Z,0.00
2017-12-05T03:25:19.757Z,0.00
2017-12-05T03:26:19.479Z,0.00
2017-12-05T03:27:19.451Z,0.00
2017-12-05T03:28:19.415Z,0.00
2017-12-05T03:29:19.395Z,0.00
2017-12-05T03:30:19.366Z,0.00
2017-12-05T03:31:19.347Z,0.00
2017-12-05T03:32:19.352Z,0.00
2017-12-05T03:33:19.277Z,0.00
2017-12-05T03:34:19.255Z,0.00
2017-12-05T03:35:19.219Z,0.00
2017-12-05T03:36:19.190Z,0.00
2017-12-05T03:37:19.165Z,0.00
2017-12-05T03:38:19.128Z,0.00
2017-12-05T03:39:19.103Z,0.00
2017-12-05T03:40:19.077Z,0.00
2017-12-05T03:41:19.062Z,0.00
2017-12-05T03:42:19.027Z,0.00
2017-12-05T03:43:18.988Z,0.00
2017-12-05T03:44:18.969Z,0.00
2017-12-05T03:45:18.936Z,0.00
2017-12-05T03:46:18.910Z,0.00
2017-12-05T03:47:18.888Z,0.00
2017-12-05T03:48:18.856Z,0.00
2017-12-05T03:49:18.824Z,0.00
2017-12-05T03:50:18.788Z,0.00
2017-12-05T03:51:18.772Z,0.00
2017-12-05T03:52:18.745Z,0.00
2017-12-05T03:53:18.721Z,0.00
2017-12-05T03:54:18.930Z,0.00
2017-12-05T03:55:18.658Z,0.00
2017-12-05T03:56:18.620Z,0.00
2017-12-05T03:57:18.595Z,0.00
2017-12-05T03:58:18.569Z,0.00
2017-12-05T03:59:18.544Z,0.00
2017-12-05T04:00:18.819Z,0.00
2017-12-05T04:01:18.499Z,0.00
2017-12-05T04:02:18.464Z,0.00
2017-12-05T04:03:18.433Z,0.00
2017-12-05T04:04:18.408Z,0.00
2017-12-05T04:05:18.368Z,0.00
2017-12-05T04:06:18.346Z,0.00
2017-12-05T04:07:18.320Z,0.00
2017-12-05T04:08:18.291Z,0.00
2017-12-05T04:09:18.259Z,0.00
2017-12-05T04:10:18.276Z,0.00
2017-12-05T04:11:18.199Z,0.00
2017-12-05T04:12:18.167Z,0.00
2017-12-05T04:13:18.155Z,0.00
2017-12-05T04:14:18.122Z,0.00
2017-12-05T04:15:18.084Z,0.00
2017-12-05T04:16:18.057Z,0.00
2017-12-05T04:17:18.042Z,0.00
2017-12-05T04:18:18.011Z,0.00
2017-12-05T04:19:17.977Z,0.00
2017-12-05T04:20:17.947Z,0.00
2017-12-05T04:21:17.919Z,0.00
2017-12-05T04:22:17.890Z,0.00
2017-12-05T04:23:17.867Z,0.00
2017-12-05T04:24:17.837Z,0.00
2017-12-05T04:25:17.807Z,0.00
2017-12-05T04:26:17.780Z,0.00
2017-12-05T04:27:17.752Z,0.00
2017-12-05T04:28:17.721Z,0.00
2017-12-05T04:29:17.698Z,0.00
2017-12-05T04:30:17.925Z,0.00
2017-12-05T04:31:17.641Z,0.00
2017-12-05T04:32:17.611Z,0.00
2017-12-05T04:33:17.584Z,0.00
2017-12-05T04:34:17.552Z,0.00
2017-12-05T04:35:17.584Z,0.00
2017-12-05T04:36:17.798Z,0.00
2017-12-05T04:37:17.473Z,0.00
2017-12-05T04:38:17.463Z,0.00
2017-12-05T04:39:17.415Z,0.00
2017-12-05T04:40:17.379Z,0.00
2017-12-05T04:41:17.355Z,0.00
2017-12-05T04:42:17.320Z,0.00
2017-12-05T04:43:17.293Z,0.00
2017-12-05T04:44:17.270Z,0.00
2017-12-05T04:45:17.238Z,0.00
2017-12-05T04:46:17.221Z,0.00
2017-12-05T04:47:17.188Z,0.00
2017-12-05T04:48:17.150Z,0.00
2017-12-05T04:49:17.141Z,0.00
2017-12-05T04:50:17.101Z,0.00
2017-12-05T04:51:17.072Z,0.00
2017-12-05T04:52:17.056Z,0.00
2017-12-05T04:53:17.021Z,0.00
2017-12-05T04:54:17.238Z,0.00
2017-12-05T04:55:16.970Z,0.00
2017-12-05T04:56:16.928Z,0.00
2017-12-05T04:57:16.896Z,0.00
2017-12-05T04:58:16.874Z,0.00
2017-12-05T04:59:16.839Z,0.00
2017-12-05T05:00:16.816Z,0.00
2017-12-05T05:01:16.786Z,0.00
2017-12-05T05:02:16.765Z,0.00
2017-12-05T05:03:16.733Z,0.00
2017-12-05T05:04:16.703Z,0.00
2017-12-05T05:05:16.674Z,0.00
2017-12-05T05:06:16.647Z,0.00
2017-12-05T05:07:16.618Z,0.00
2017-12-05T05:08:16.587Z,0.00
2017-12-05T05:09:16.558Z,0.00
2017-12-05T05:10:16.534Z,0.00
2017-12-05T05:11:16.509Z,0.00
2017-12-05T05:12:16.838Z,0.00
2017-12-05T05:13:16.441Z,0.00
2017-12-05T05:14:16.425Z,0.00
2017-12-05T05:15:16.393Z,0.00
2017-12-05T05:16:16.367Z,0.00
2017-12-05T05:17:16.337Z,0.00
2017-12-05T05:18:16.616Z,0.00
2017-12-05T05:19:16.283Z,0.00
2017-12-05T05:20:16.248Z,0.00
2017-12-05T05:21:16.226Z,0.00
2017-12-05T05:22:16.198Z,0.00
2017-12-05T05:23:16.175Z,0.00
2017-12-05T05:24:16.388Z,0.00
2017-12-05T05:25:16.115Z,0.00
2017-12-05T05:26:16.083Z,0.00
2017-12-05T05:27:16.047Z,0.00
2017-12-05T05:28:16.030Z,0.00
2017-12-05T05:29:15.999Z,0.00
2017-12-05T05:30:15.977Z,0.00
2017-12-05T05:31:15.938Z,0.00
2017-12-05T05:32:15.917Z,0.00
2017-12-05T05:33:15.882Z,0.00
2017-12-05T05:34:15.852Z,0.00
2017-12-05T05:35:15.831Z,0.00
2017-12-05T05:36:16.055Z,0.00
2017-12-05T05:37:15.769Z,0.00
2017-12-05T05:38:15.736Z,0.00
2017-12-05T05:39:15.715Z,0.00
2017-12-05T05:40:15.682Z,0.00
2017-12-05T05:41:15.666Z,0.00
2017-12-05T05:42:15.628Z,0.00
2017-12-05T05:43:15.602Z,0.00
2017-12-05T05:44:15.568Z,0.00
2017-12-05T05:45:15.544Z,0.00
2017-12-05T05:46:15.520Z,0.00
2017-12-05T05:47:15.487Z,0.00
2017-12-05T05:48:15.470Z,0.00
2017-12-05T05:49:15.436Z,0.00
2017-12-05T05:50:15.398Z,0.00
2017-12-05T05:51:15.377Z,0.00
2017-12-05T05:52:15.348Z,0.00
2017-12-05T05:53:15.321Z,0.00
2017-12-05T05:54:15.293Z,0.00
2017-12-05T05:55:15.267Z,0.00
2017-12-05T05:56:15.237Z,0.00
2017-12-05T05:57:15.215Z,0.00
2017-12-05T05:58:15.175Z,0.00
2017-12-05T05:59:15.156Z,0.00
2017-12-05T06:00:15.373Z,0.00
2017-12-05T06:01:15.095Z,0.00
2017-12-05T06:02:15.069Z,0.00
2017-12-05T06:03:15.044Z,0.00
2017-12-05T06:04:15.006Z,0.00
2017-12-05T06:05:14.980Z,0.00
2017-12-05T06:06:15.207Z,0.00
2017-12-05T06:07:14.931Z,0.00
2017-12-05T06:08:14.893Z,0.00
2017-12-05T06:09:14.868Z,0.00
2017-12-05T06:10:14.838Z,0.00
2017-12-05T06:11:14.803Z,0.00
2017-12-05T06:12:14.779Z,0.00
2017-12-05T06:13:14.762Z,0.00
2017-12-05T06:14:14.738Z,0.00
2017-12-05T06:15:14.701Z,0.00
2017-12-05T06:16:14.668Z,0.00
2017-12-05T06:17:14.647Z,0.00
2017-12-05T06:18:14.610Z,0.00
2017-12-05T06:19:14.585Z,0.00
2017-12-05T06:20:14.565Z,0.00
2017-12-05T06:21:14.523Z,0.00
2017-12-05T06:22:14.505Z,0.00
2017-12-05T06:23:14.773Z,0.00
2017-12-05T06:24:14.447Z,0.00
2017-12-05T06:25:14.417Z,0.00
2017-12-05T06:26:14.380Z,0.00
2017-12-05T06:27:14.358Z,0.00
2017-12-05T06:28:14.323Z,0.00
2017-12-05T06:29:14.554Z,0.00
2017-12-05T06:30:14.286Z,0.00
2017-12-05T06:31:14.238Z,0.00
2017-12-05T06:32:14.212Z,0.00
2017-12-05T06:33:14.188Z,0.00
2017-12-05T06:34:14.164Z,0.00
2017-12-05T06:35:14.134Z,0.00
2017-12-05T06:36:14.102Z,0.00
2017-12-05T06:37:14.081Z,0.00
2017-12-05T06:38:14.046Z,0.00
2017-12-05T06:39:14.023Z,0.00
2017-12-05T06:40:13.995Z,0.00
2017-12-05T06:41:13.955Z,0.00
2017-12-05T06:42:13.941Z,0.00
2017-12-05T06:43:13.899Z,0.00
2017-12-05T06:44:13.874Z,0.00
2017-12-05T06:45:13.859Z,0.00
2017-12-05T06:46:13.834Z,0.00
2017-12-05T06:47:13.806Z,0.00
2017-12-05T06:48:13.771Z,0.00
2017-12-05T06:49:13.741Z,0.00
2017-12-05T06:50:13.705Z,0.00
2017-12-05T06:51:13.686Z,0.00
2017-12-05T06:52:13.651Z,0.00
2017-12-05T06:53:13.917Z,0.00
2017-12-05T06:54:13.594Z,0.00
2017-12-05T06:55:13.572Z,0.00
2017-12-05T06:56:13.536Z,0.00
2017-12-05T06:57:13.543Z,0.00
2017-12-05T06:58:13.483Z,0.00
2017-12-05T06:59:13.705Z,0.00
2017-12-05T07:00:13.430Z,0.00
2017-12-05T07:01:13.404Z,0.00
2017-12-05T07:02:13.369Z,0.00
2017-12-05T07:03:13.341Z,0.00
2017-12-05T07:04:13.318Z,0.00
2017-12-05T07:05:13.537Z,0.00
2017-12-05T07:06:13.261Z,0.00
2017-12-05T07:07:13.233Z,0.00
2017-12-05T07:08:13.198Z,5.63
2017-12-05T07:09:13.174Z,5.63
2017-12-05T07:10:13.136Z,5.63
2017-12-05T07:11:13.126Z,5.63
2017-12-05T07:12:13.083Z,5.63
2017-12-05T07:13:13.051Z,5.63
2017-12-05T07:14:13.035Z,5.63
2017-12-05T07:15:13.003Z,11.25
2017-12-05T07:16:12.970Z,11.25
2017-12-05T07:17:12.945Z,11.25
2017-12-05T07:18:12.920Z,11.25
2017-12-05T07:19:12.886Z,16.88
2017-12-05T07:20:12.854Z,16.88
2017-12-05T07:21:12.836Z,16.88
2017-12-05T07:22:12.802Z,16.88
2017-12-05T07:23:12.783Z,16.88
2017-12-05T07:24:12.751Z,16.88
2017-12-05T07:25:12.721Z,16.88
2017-12-05T07:26:12.698Z,16.88
2017-12-05T07:27:12.666Z,16.88
2017-12-05T07:28:12.636Z,16.88
2017-12-05T07:29:12.601Z,22.50
2017-12-05T07:30:12.578Z,28.13
2017-12-05T07:31:12.545Z,22.50
2017-12-05T07:32:12.525Z,22.50
2017-12-05T07:33:12.503Z,28.13
2017-12-05T07:34:12.468Z,33.75
2017-12-05T07:35:12.434Z,28.13
2017-12-05T07:36:12.410Z,33.75
2017-12-05T07:37:12.385Z,33.75
2017-12-05T07:38:12.351Z,39.38
2017-12-05T07:39:12.329Z,33.75
2017-12-05T07:40:12.294Z,45.00
2017-12-05T07:41:12.264Z,33.75
2017-12-05T07:42:12.233Z,39.38
2017-12-05T07:43:12.213Z,39.38
2017-12-05T07:44:12.190Z,50.63
2017-12-05T07:45:12.147Z,50.63
2017-12-05T07:46:12.120Z,56.25
2017-12-05T07:47:12.094Z,61.88
2017-12-05T07:48:12.061Z,78.75
2017-12-05T07:49:12.047Z,67.50
2017-12-05T07:50:12.015Z,67.50
2017-12-05T07:51:11.978Z,61.88
2017-12-05T07:52:11.945Z,61.88
2017-12-05T07:53:11.936Z,50.63
2017-12-05T07:54:11.904Z,39.38
2017-12-05T07:55:11.870Z,45.00
2017-12-05T07:56:11.838Z,45.00
2017-12-05T07:57:11.806Z,50.63
2017-12-05T07:58:11.781Z,56.25
2017-12-05T07:59:11.757Z,50.63
2017-12-05T08:00:11.724Z,50.63
2017-12-05T08:01:11.699Z,50.63
2017-12-05T08:02:11.672Z,61.88
2017-12-05T08:03:11.638Z,67.50
2017-12-05T08:04:11.605Z,84.38
2017-12-05T08:05:11.580Z,101.25
2017-12-05T08:06:11.563Z,95.63
2017-12-05T08:07:11.518Z,90.00
2017-12-05T08:08:11.494Z,95.63
2017-12-05T08:09:11.468Z,90.00
2017-12-05T08:10:11.435Z,101.25
2017-12-05T08:11:11.413Z,118.13
2017-12-05T08:12:11.384Z,118.13
2017-12-05T08:13:11.353Z,129.38
2017-12-05T08:14:11.325Z,123.75
2017-12-05T08:15:11.303Z,129.38
2017-12-05T08:16:11.271Z,106.88
2017-12-05T08:17:11.235Z,106.88
2017-12-05T08:18:11.211Z,106.88
2017-12-05T08:19:11.178Z,123.75
2017-12-05T08:20:11.158Z,118.13
2017-12-05T08:21:11.144Z,123.75
2017-12-05T08:22:11.101Z,112.50
2017-12-05T08:23:11.067Z,123.75
2017-12-05T08:24:11.034Z,140.63
2017-12-05T08:25:11.023Z,123.75
2017-12-05T08:26:10.987Z,135.00
2017-12-05T08:27:10.951Z,140.63
2017-12-05T08:28:10.927Z,157.50
2017-12-05T08:29:10.900Z,146.25
2017-12-05T08:30:10.866Z,146.25
2017-12-05T08:31:10.841Z,123.75
2017-12-05T08:32:10.819Z,185.63
2017-12-05T08:33:10.777Z,208.13
2017-12-05T08:34:10.754Z,180.00
2017-12-05T08:35:10.726Z,180.00
2017-12-05T08:36:10.698Z,168.75
2017-12-05T08:37:10.667Z,174.38
2017-12-05T08:38:10.647Z,157.50
2017-12-05T08:39:10.618Z,174.38
2017-12-05T08:40:10.581Z,174.38
2017-12-05T08:41:10.569Z,168.75
2017-12-05T08:42:10.529Z,174.38
2017-12-05T08:43:10.497Z,174.38
2017-12-05T08:44:10.470Z,196.88
2017-12-05T08:45:10.441Z,191.25
2017-12-05T08:46:10.408Z,180.00
2017-12-05T08:47:10.384Z,191.25
2017-12-05T08:48:10.365Z,196.88
2017-12-05T08:49:10.327Z,230.63
2017-12-05T08:50:10.295Z,236.25
2017-12-05T08:51:10.270Z,230.63
2017-12-05T08:52:10.249Z,258.75
2017-12-05T08:53:10.216Z,281.25
2017-12-05T08:54:10.199Z,264.38
2017-12-05T08:55:10.153Z,286.88
2017-12-05T08:56:10.126Z,241.88
2017-12-05T08:57:10.105Z,208.13
2017-12-05T08:58:10.079Z,219.38
2017-12-05T08:59:10.058Z,219.38
2017-12-05T09:00:10.023Z,174.38
2017-12-05T09:01:09.989Z,180.00
2017-12-05T09:02:09.968Z,191.25
2017-12-05T09:03:09.938Z,180.00
2017-12-05T09:04:09.902Z,168.75
2017-12-05T09:05:09.876Z,174.38
2017-12-05T09:06:09.850Z,185.63
2017-12-05T09:07:09.815Z,146.25
2017-12-05T09:08:09.786Z,135.00
2017-12-05T09:09:09.761Z,140.63
2017-12-05T09:10:09.744Z,157.50
2017-12-05T09:11:09.705Z,191.25
2017-12-05T09:12:09.679Z,219.38
2017-12-05T09:13:09.651Z,241.88
2017-12-05T09:14:09.626Z,258.75
2017-12-05T09:15:09.604Z,270.00
2017-12-05T09:16:09.565Z,230.63
2017-12-05T09:17:09.538Z,185.63
2017-12-05T09:18:09.505Z,146.25
2017-12-05T09:19:09.486Z,151.88
2017-12-05T09:20:09.458Z,129.38
2017-12-05T09:21:09.418Z,123.75
2017-12-05T09:22:09.393Z,135.00
2017-12-05T09:23:09.370Z,151.88
2017-12-05T09:24:09.343Z,157.50
2017-12-05T09:25:09.316Z,196.88
2017-12-05T09:26:09.280Z,208.13
2017-12-05T09:27:09.257Z,225.00
2017-12-05T09:28:09.225Z,219.38
2017-12-05T09:29:09.195Z,230.63
2017-12-05T09:30:09.176Z,213.75
2017-12-05T09:31:09.150Z,219.38
2017-12-05T09:32:09.126Z,208.13
2017-12-05T09:33:09.081Z,202.50
2017-12-05T09:34:09.058Z,196.88
2017-12-05T09:35:09.031Z,196.88
2017-12-05T09:36:09.001Z,286.88
2017-12-05T09:37:08.969Z,315.00
2017-12-05T09:38:08.942Z,326.25
2017-12-05T09:39:08.921Z,337.50
2017-12-05T09:40:08.891Z,371.25
2017-12-05T09:41:08.863Z,365.63
2017-12-05T09:42:08.833Z,433.13
2017-12-05T09:43:08.808Z,326.25
2017-12-05T09:44:08.784Z,331.88
2017-12-05T09:45:08.742Z,348.75
2017-12-05T09:46:08.717Z,337.50
2017-12-05T09:47:08.684Z,331.88
2017-12-05T09:48:08.669Z,292.50
2017-12-05T09:49:08.642Z,292.50
2017-12-05T09:50:08.611Z,286.88
2017-12-05T09:51:08.581Z,315.00
2017-12-05T09:52:08.568Z,326.25
2017-12-05T09:53:08.520Z,315.00
2017-12-05T09:54:08.496Z,303.75
2017-12-05T09:55:08.470Z,309.38
2017-12-05T09:56:08.445Z,348.75
2017-12-05T09:57:08.410Z,331.88
2017-12-05T09:58:08.383Z,315.00
2017-12-05T09:59:08.357Z,315.00
2017-12-05T10:00:08.326Z,365.63
2017-12-05T10:01:08.302Z,270.00
2017-12-05T10:02:08.273Z,286.88
2017-12-05T10:03:08.242Z,264.38
2017-12-05T10:04:08.211Z,258.75
2017-12-05T10:05:08.188Z,236.25
2017-12-05T10:06:08.159Z,225.00
2017-12-05T10:07:08.137Z,213.75
2017-12-05T10:08:08.099Z,230.63
2017-12-05T10:09:08.074Z,202.50
2017-12-05T10:10:08.051Z,219.38
2017-12-05T10:11:08.018Z,230.63
2017-12-05T10:12:07.997Z,286.88
2017-12-05T10:13:07.957Z,219.38
2017-12-05T10:14:07.937Z,247.50
2017-12-05T10:15:07.914Z,315.00
2017-12-05T10:16:07.884Z,292.50
2017-12-05T10:17:07.854Z,360.00
2017-12-05T10:18:07.817Z,343.13
2017-12-05T10:19:07.797Z,360.00
2017-12-05T10:20:07.768Z,337.50
2017-12-05T10:21:07.756Z,376.88
2017-12-05T10:22:08.012Z,399.38
2017-12-05T10:23:07.684Z,371.25
2017-12-05T10:24:07.653Z,320.63
2017-12-05T10:25:07.634Z,264.38
2017-12-05T10:26:07.599Z,236.25
2017-12-05T10:27:07.576Z,230.63
2017-12-05T10:28:07.549Z,247.50
2017-12-05T10:29:07.522Z,208.13
2017-12-05T10:30:07.495Z,247.50
2017-12-05T10:31:07.467Z,230.63
2017-12-05T10:32:07.434Z,213.75
2017-12-05T10:33:07.400Z,213.75
2017-12-05T10:34:07.630Z,258.75
2017-12-05T10:35:07.353Z,230.63
2017-12-05T10:36:07.313Z,292.50
2017-12-05T10:37:07.298Z,286.88
2017-12-05T10:38:07.269Z,281.25
2017-12-05T10:39:07.232Z,303.75
2017-12-05T10:40:07.210Z,337.50
2017-12-05T10:41:07.187Z,416.25
2017-12-05T10:42:07.150Z,315.00
2017-12-05T10:43:07.123Z,343.13
2017-12-05T10:44:07.096Z,416.25
2017-12-05T10:45:07.064Z,461.25
2017-12-05T10:46:07.335Z,466.88
2017-12-05T10:47:07.019Z,495.00
2017-12-05T10:48:06.991Z,427.50
2017-12-05T10:49:06.956Z,348.75
2017-12-05T10:50:06.935Z,382.50
2017-12-05T10:51:06.900Z,410.63
2017-12-05T10:52:06.867Z,444.38
2017-12-05T10:53:06.855Z,365.63
2017-12-05T10:54:06.823Z,371.25
2017-12-05T10:55:06.796Z,348.75
2017-12-05T10:56:06.765Z,354.38
2017-12-05T10:57:06.750Z,376.88
2017-12-05T10:58:06.704Z,360.00
2017-12-05T10:59:06.686Z,348.75
2017-12-05T11:00:06.655Z,393.75
2017-12-05T11:01:06.629Z,337.50
2017-12-05T11:02:06.592Z,343.13
2017-12-05T11:03:06.577Z,320.63
2017-12-05T11:04:06.545Z,258.75
2017-12-05T11:05:06.515Z,236.25
2017-12-05T11:06:06.487Z,253.13
2017-12-05T11:07:06.459Z,258.75
2017-12-05T11:08:06.430Z,281.25
2017-12-05T11:09:06.402Z,230.63
2017-12-05T11:10:06.388Z,208.13
2017-12-05T11:11:06.345Z,213.75
2017-12-05T11:12:06.320Z,185.63
2017-12-05T11:13:06.300Z,168.75
2017-12-05T11:14:06.263Z,191.25
2017-12-05T11:15:06.242Z,270.00
2017-12-05T11:16:06.515Z,247.50
2017-12-05T11:17:06.178Z,264.38
2017-12-05T11:18:06.155Z,281.25
2017-12-05T11:19:06.128Z,264.38
2017-12-05T11:20:06.102Z,264.38
2017-12-05T11:21:06.072Z,230.63
2017-12-05T11:22:06.042Z,236.25
2017-12-05T11:23:06.012Z,213.75
2017-12-05T11:24:05.979Z,196.88
2017-12-05T11:25:05.964Z,151.88
2017-12-05T11:26:05.934Z,157.50
2017-12-05T11:27:05.902Z,213.75
2017-12-05T11:28:05.875Z,236.25
2017-12-05T11:29:05.853Z,275.63
2017-12-05T11:30:05.816Z,320.63
2017-12-05T11:31:05.792Z,360.00
2017-12-05T11:32:05.767Z,393.75
2017-12-05T11:33:05.982Z,393.75
2017-12-05T11:34:05.710Z,416.25
2017-12-05T11:35:05.685Z,416.25
2017-12-05T11:36:05.653Z,416.25
2017-12-05T11:37:05.616Z,433.13
2017-12-05T11:38:05.595Z,450.00
2017-12-05T11:39:05.572Z,523.13
2017-12-05T11:40:05.551Z,562.50
2017-12-05T11:41:05.520Z,534.38
2017-12-05T11:42:05.490Z,540.00
2017-12-05T11:43:05.463Z,506.25
2017-12-05T11:44:05.429Z,551.25
2017-12-05T11:45:05.401Z,534.38
2017-12-05T11:46:05.381Z,489.38
2017-12-05T11:47:05.341Z,506.25
2017-12-05T11:48:05.318Z,500.63
2017-12-05T11:49:05.298Z,478.13
2017-12-05T11:50:05.271Z,393.75
2017-12-05T11:51:05.239Z,388.13
2017-12-05T11:52:05.225Z,360.00
2017-12-05T11:53:05.183Z,405.00
2017-12-05T11:54:05.166Z,360.00
2017-12-05T11:55:05.137Z,315.00
2017-12-05T11:56:05.110Z,303.75
2017-12-05T11:57:05.080Z,343.13
2017-12-05T11:58:05.048Z,309.38
2017-12-05T11:59:05.032Z,258.75
2017-12-05T12:00:04.997Z,275.63
2017-12-05T12:01:04.971Z,292.50
2017-12-05T12:02:04.950Z,309.38
2017-12-05T12:03:04.906Z,298.13
2017-12-05T12:04:04.888Z,303.75
2017-12-05T12:05:04.864Z,264.38
2017-12-05T12:06:04.825Z,331.88
2017-12-05T12:07:04.800Z,348.75
2017-12-05T12:08:04.780Z,315.00
2017-12-05T12:09:04.759Z,309.38
2017-12-05T12:10:04.723Z,365.63
2017-12-05T12:11:04.696Z,360.00
2017-12-05T12:12:04.665Z,365.63
2017-12-05T12:13:04.636Z,292.50
2017-12-05T12:14:04.605Z,354.38
2017-12-05T12:15:04.581Z,331.88
2017-12-05T12:16:04.552Z,331.88
2017-12-05T12:17:04.534Z,348.75
2017-12-05T12:18:04.494Z,331.88
2017-12-05T12:19:04.471Z,298.13
2017-12-05T12:20:04.439Z,281.25
2017-12-05T12:21:04.426Z,253.13
2017-12-05T12:22:04.396Z,253.13
2017-12-05T12:23:04.364Z,258.75
2017-12-05T12:24:04.338Z,275.63
2017-12-05T12:25:04.308Z,286.88
2017-12-05T12:26:04.284Z,286.88
2017-12-05T12:27:04.260Z,298.13
2017-12-05T12:28:04.227Z,315.00
2017-12-05T12:29:04.193Z,298.13
2017-12-05T12:30:04.187Z,264.38
2017-12-05T12:31:04.154Z,253.13
2017-12-05T12:32:04.119Z,253.13
2017-12-05T12:33:04.089Z,253.13
2017-12-05T12:34:04.065Z,258.75
2017-12-05T12:35:04.030Z,264.38
2017-12-05T12:36:04.006Z,270.00
2017-12-05T12:37:03.977Z,281.25
2017-12-05T12:38:03.950Z,292.50
2017-12-05T12:39:04.278Z,292.50
2017-12-05T12:40:03.892Z,270.00
2017-12-05T12:41:03.868Z,241.88
2017-12-05T12:42:03.837Z,219.38
2017-12-05T12:43:03.820Z,213.75
2017-12-05T12:44:03.791Z,208.13
2017-12-05T12:45:03.763Z,219.38
2017-12-05T12:46:03.725Z,202.50
2017-12-05T12:47:03.708Z,196.88
2017-12-05T12:48:03.676Z,185.63
2017-12-05T12:49:03.654Z,185.63
2017-12-05T12:50:03.619Z,163.13
2017-12-05T12:51:03.593Z,168.75
2017-12-05T12:52:03.556Z,157.50
2017-12-05T12:53:03.549Z,180.00
2017-12-05T12:54:03.508Z,185.63
2017-12-05T12:55:03.486Z,185.63
2017-12-05T12:56:03.450Z,180.00
2017-12-05T12:57:03.442Z,191.25